Time;durP1;ratioP1;P1;durP2;ratioP2;P2;SDS_P1;SDS_P2;PMS_P1;PMS_P2;Temp;Humidity;BMP_temperature;BMP_pressure;BME280_temperature;BME280_humidity;BME280_pressure;Samples;Min_cycle;Max_cycle;Signal;HPM_P1;HPM_P2
2023/07/21 00:00:18;;;;;;;7.32;5.72;;;;;;;16.52;72.99;101164.13;5075027;28;20036;-57
2023/07/21 00:02:44;;;;;;;6.25;5.38;;;;;;;16.45;72.59;101163.31;5075087;28;20450;-58
2023/07/21 00:05:11;;;;;;;6.78;5.43;;;;;;;16.38;72.77;101164.25;5075301;28;20067;-57
2023/07/21 00:07:37;;;;;;;7.07;5.80;;;;;;;16.27;73.18;101155.44;5075176;28;20099;-57
2023/07/21 00:10:07;;;;;;;6.45;5.57;;;;;;;16.08;74.77;101157.38;5074821;28;20352;-57
2023/07/21 00:12:49;;;;;;;9.27;5.82;;;;;;;15.91;75.46;101160.13;5074861;28;20020;-56
2023/07/21 00:15:17;;;;;;;9.68;6.00;;;;;;;15.73;76.09;101163.81;5056914;28;20028;-58
2023/07/21 00:17:44;;;;;;;12.85;6.03;;;;;;;15.56;76.74;101156.75;5075003;28;20024;-57
2023/07/21 00:20:12;;;;;;;6.28;5.43;;;;;;;15.42;76.90;101163.03;5074944;28;20082;-57
2023/07/21 00:22:38;;;;;;;13.50;6.55;;;;;;;15.28;78.16;101159.53;5073945;28;20035;-58
2023/07/21 00:25:10;;;;;;;9.13;5.70;;;;;;;15.25;78.31;101157.78;5074631;28;20039;-56
2023/07/21 00:27:37;;;;;;;11.65;6.05;;;;;;;15.22;78.56;101157.78;5074601;28;20104;-58
2023/07/21 00:30:03;;;;;;;9.18;5.65;;;;;;;15.23;78.88;101153.34;5074392;28;20049;-57
2023/07/21 00:32:31;;;;;;;10.15;6.20;;;;;;;15.16;78.25;101154.22;5073813;28;20049;-58
2023/07/21 00:34:57;;;;;;;10.02;6.00;;;;;;;15.17;79.11;101145.38;5074605;28;20086;-58
2023/07/21 00:37:23;;;;;;;12.63;5.85;;;;;;;15.25;78.16;101148.91;5056542;28;20497;-56
2023/07/21 00:39:48;;;;;;;14.52;5.55;;;;;;;15.41;77.69;101147.94;5074401;28;20020;-57
2023/07/21 00:42:13;;;;;;;9.23;6.03;;;;;;;15.45;77.35;101155.00;5074090;28;20060;-58
2023/07/21 00:44:39;;;;;;;7.32;5.25;;;;;;;15.47;76.54;101147.03;5074504;28;20028;-57
2023/07/21 00:47:05;;;;;;;8.95;5.43;;;;;;;15.57;76.55;101142.53;5074213;28;20071;-57
2023/07/21 00:49:33;;;;;;;7.25;5.60;;;;;;;15.59;76.36;101139.00;5074089;28;20028;-57
2023/07/21 00:51:59;;;;;;;8.23;5.55;;;;;;;15.61;75.79;101137.19;5074395;28;20033;-58
2023/07/21 00:54:25;;;;;;;7.97;5.45;;;;;;;15.57;76.28;101137.22;5074074;28;20081;-57
2023/07/21 00:56:52;;;;;;;7.18;5.30;;;;;;;15.47;76.66;101133.72;5073867;28;20068;-58
2023/07/21 00:59:18;;;;;;;7.85;5.90;;;;;;;15.47;76.46;101133.72;5073924;28;20036;-57
2023/07/21 01:01:43;;;;;;;5.90;5.10;;;;;;;15.46;76.50;101135.50;5074112;28;20024;-57
2023/07/21 01:04:09;;;;;;;6.70;5.43;;;;;;;15.45;76.45;101123.06;5073908;28;20032;-58
2023/07/21 01:06:37;;;;;;;12.90;5.75;;;;;;;15.50;76.48;101129.28;5073881;28;20110;-58
2023/07/21 01:09:06;;;;;;;7.75;5.40;;;;;;;15.48;76.60;101127.50;5073693;28;20029;-58
2023/07/21 01:11:34;;;;;;;9.52;5.47;;;;;;;15.40;76.91;101129.31;5073667;28;20024;-57
2023/07/21 01:14:04;;;;;;;7.28;5.75;;;;;;;15.26;77.48;101119.59;5073590;28;20470;-57
2023/07/21 01:16:37;;;;;;;7.28;5.95;;;;;;;15.15;78.38;101121.41;5073943;28;20029;-58
2023/07/21 01:19:03;;;;;;;;;;;;;;;15.34;75.96;101116.03;5074197;28;20037;-57
2023/07/21 01:21:43;;;;;;;7.72;5.72;;;;;;;15.27;77.53;101108.06;5073566;28;20341;-59
2023/07/21 01:24:38;;;;;;;6.80;5.75;;;;;;;15.42;77.03;101109.78;5073637;28;20028;-57
2023/07/21 01:27:07;;;;;;;8.43;6.43;;;;;;;15.41;77.23;101117.75;5051799;28;20490;-57
2023/07/21 01:29:34;;;;;;;9.30;6.38;;;;;;;15.40;77.44;101111.53;5073327;28;20402;-58
2023/07/21 01:32:02;;;;;;;7.45;6.03;;;;;;;15.36;77.11;101101.78;5073366;28;20084;-57
2023/07/21 01:34:30;;;;;;;10.80;6.38;;;;;;;15.39;77.13;101106.25;5073139;28;20032;-57
2023/07/21 01:36:57;;;;;;;11.15;6.35;;;;;;;15.43;76.60;101106.22;5073349;28;20020;-57
2023/07/21 01:39:23;;;;;;;10.82;6.10;;;;;;;15.42;76.49;101092.91;5073330;28;20039;-58
2023/07/21 01:41:49;;;;;;;7.07;5.80;;;;;;;15.36;76.86;101093.81;5073036;28;20037;-58
2023/07/21 01:44:14;;;;;;;7.70;6.25;;;;;;;15.28;77.15;101092.97;5055329;28;20025;-57
2023/07/21 01:46:40;;;;;;;12.70;6.30;;;;;;;15.21;77.42;101086.78;5073213;28;20123;-58
2023/07/21 01:49:05;;;;;;;10.23;6.60;;;;;;;15.22;77.24;101101.00;5073456;28;20123;-58
2023/07/21 01:51:33;;;;;;;8.02;6.30;;;;;;;15.20;77.70;101090.34;5073097;28;20035;-57
2023/07/21 01:54:02;;;;;;;8.48;6.38;;;;;;;15.14;77.91;101090.38;5073266;28;20528;-58
2023/07/21 01:56:40;;;;;;;10.18;7.03;;;;;;;15.00;78.47;101084.22;5073155;28;20107;-58
2023/07/21 01:59:10;;;;;;;14.52;6.90;;;;;;;14.93;79.31;101085.13;5073216;28;20065;-58
2023/07/21 02:01:38;;;;;;;10.82;6.95;;;;;;;14.97;78.78;101092.22;5073413;28;20047;-57
2023/07/21 02:04:03;;;;;;;8.88;6.43;;;;;;;14.98;78.12;101092.19;5073043;28;20429;-57
2023/07/21 02:06:29;;;;;;;11.68;6.50;;;;;;;14.91;78.31;101085.13;5073176;28;20039;-58
2023/07/21 02:08:54;;;;;;;8.73;6.32;;;;;;;14.84;78.74;101082.50;5073296;28;20025;-57
2023/07/21 02:11:20;;;;;;;6.97;6.03;;;;;;;14.83;78.56;101091.38;5072922;28;20025;-59
2023/07/21 02:13:46;;;;;;;7.72;6.50;;;;;;;14.80;78.96;101083.38;5073261;28;20158;-58
2023/07/21 02:16:11;;;;;;;7.95;6.22;;;;;;;14.82;78.48;101077.19;5073131;28;20028;-57
2023/07/21 02:18:39;;;;;;;9.68;6.63;;;;;;;14.87;78.60;101072.72;5072861;28;20431;-58
2023/07/21 02:21:04;;;;;;;11.55;7.00;;;;;;;14.91;78.49;101074.50;5072965;28;20036;-57
2023/07/21 02:23:31;;;;;;;10.13;6.50;;;;;;;14.95;77.54;101080.69;5073034;28;20028;-58
2023/07/21 02:25:57;;;;;;;13.85;6.45;;;;;;;14.90;77.84;101079.81;5072764;28;20508;-58
2023/07/21 02:28:23;;;;;;;8.15;6.32;;;;;;;14.85;78.22;101074.50;5072772;28;20048;-57
2023/07/21 02:31:03;;;;;;;10.55;6.35;;;;;;;14.81;78.22;101074.50;5073026;28;20033;-57
2023/07/21 02:33:30;;;;;;;7.88;6.47;;;;;;;14.75;77.78;101075.44;5072968;28;20098;-57
2023/07/21 02:35:57;;;;;;;8.65;6.50;;;;;;;14.68;78.21;101077.19;5072800;28;20036;-57
2023/07/21 02:38:22;;;;;;;10.00;6.68;;;;;;;14.61;78.52;101071.94;5072561;28;20100;-57
2023/07/21 02:40:48;;;;;;;9.85;6.30;;;;;;;14.51;79.28;101085.22;5072617;28;20512;-57
2023/07/21 02:43:13;;;;;;;8.02;6.30;;;;;;;14.44;79.72;101069.25;5072711;28;20029;-57
2023/07/21 02:45:38;;;;;;;8.60;6.65;;;;;;;14.47;79.47;101074.56;5073624;28;20031;-58
2023/07/21 02:48:08;;;;;;;10.68;6.30;;;;;;;14.44;79.73;101067.47;5076774;28;20115;-58
2023/07/21 02:50:34;;;;;;;9.23;6.07;;;;;;;14.52;78.99;101071.06;5076394;28;20531;-57
2023/07/21 02:52:59;;;;;;;6.82;6.10;;;;;;;14.56;78.59;101071.03;5076408;28;20025;-57
2023/07/21 02:55:25;;;;;;;9.45;6.07;;;;;;;14.64;77.87;101063.91;5076419;28;20032;-57
2023/07/21 02:57:50;;;;;;;10.52;5.80;;;;;;;14.57;77.80;101062.19;5058232;28;20067;-58
2023/07/21 03:00:16;;;;;;;7.57;5.88;;;;;;;14.48;78.30;101071.03;5076279;28;20025;-58
2023/07/21 03:02:42;;;;;;;9.32;5.80;;;;;;;14.43;78.27;101060.41;5076274;28;20385;-57
2023/07/21 03:05:08;;;;;;;9.13;6.55;;;;;;;14.41;78.90;101064.81;5076454;28;20028;-57
2023/07/21 03:07:34;;;;;;;9.52;6.38;;;;;;;14.37;78.76;101063.06;5076077;28;20028;-58
2023/07/21 03:10:00;;;;;;;7.60;6.47;;;;;;;14.42;78.40;101063.03;5076010;28;20029;-58
2023/07/21 03:12:25;;;;;;;7.18;5.82;;;;;;;14.40;78.29;101065.72;5075772;28;20477;-58
2023/07/21 03:14:51;;;;;;;9.73;6.20;;;;;;;14.40;78.41;101065.72;5075918;28;20028;-58
2023/07/21 03:17:16;;;;;;;7.03;5.88;;;;;;;14.41;78.59;101063.94;5076181;28;20024;-57
2023/07/21 03:19:42;;;;;;;7.55;6.38;;;;;;;14.37;78.30;101076.34;5076168;28;20024;-58
2023/07/21 03:22:07;;;;;;;8.80;6.10;;;;;;;14.35;78.53;101069.28;5075820;28;20174;-58
2023/07/21 03:24:34;;;;;;;10.65;6.38;;;;;;;14.32;78.74;101063.97;5075952;28;20044;-58
2023/07/21 03:27:00;;;;;;;9.88;6.80;;;;;;;14.39;79.27;101066.59;5075645;28;20033;-57
2023/07/21 03:29:25;;;;;;;10.05;6.38;;;;;;;14.44;78.20;101064.81;5075558;28;20049;-58
2023/07/21 03:31:50;;;;;;;9.75;6.32;;;;;;;14.55;77.88;101066.59;5075519;28;20032;-57
2023/07/21 03:34:16;;;;;;;8.85;6.32;;;;;;;14.61;77.29;101062.16;5075911;28;20024;-57
2023/07/21 03:36:41;;;;;;;10.05;6.65;;;;;;;14.59;77.69;101066.59;5075589;28;20470;-57
2023/07/21 03:39:07;;;;;;;9.00;5.97;;;;;;;14.43;77.56;101067.47;5075811;28;20028;-59
2023/07/21 03:41:32;;;;;;;8.02;6.45;;;;;;;14.28;78.08;101063.94;5075525;28;20478;-56
2023/07/21 03:43:58;;;;;;;12.85;6.93;;;;;;;14.11;79.06;101057.75;5075446;28;20028;-58
2023/07/21 03:46:23;;;;;;;8.40;6.35;;;;;;;14.02;79.84;101060.44;5085779;28;20035;-58
2023/07/21 03:48:50;;;;;;;11.52;6.97;;;;;;;13.98;80.04;101058.66;5095587;28;20039;-57
2023/07/21 03:51:15;;;;;;;8.38;6.60;;;;;;;13.98;79.92;101067.50;5094823;28;20431;-57
2023/07/21 03:53:41;;;;;;;9.63;6.72;;;;;;;14.03;79.92;101063.06;5094762;28;20028;-57
2023/07/21 03:56:07;;;;;;;9.57;6.95;;;;;;;14.01;79.75;101063.97;5094729;28;20064;-57
2023/07/21 03:58:33;;;;;;;10.15;7.15;;;;;;;14.04;80.05;101063.94;5094520;28;20024;-58
2023/07/21 04:00:59;;;;;;;9.27;7.35;;;;;;;14.03;79.90;101065.72;5094642;28;20024;-57
2023/07/21 04:03:25;;;;;;;9.40;7.03;;;;;;;14.08;79.80;101071.03;5094498;28;20046;-57
2023/07/21 04:05:51;;;;;;;12.73;7.07;;;;;;;14.00;80.57;101070.16;5094812;28;20036;-58
2023/07/21 04:08:18;;;;;;;9.90;6.57;;;;;;;13.91;81.05;101062.19;5094814;28;20389;-57
2023/07/21 04:10:43;;;;;;;9.85;6.60;;;;;;;13.94;80.72;101063.06;5094532;28;20080;-57
2023/07/21 04:13:09;;;;;;;7.53;6.18;;;;;;;14.01;80.18;101056.88;5094174;28;20024;-58
2023/07/21 04:15:34;;;;;;;7.63;6.13;;;;;;;14.22;79.63;101049.81;5094254;28;20064;-57
2023/07/21 04:18:00;;;;;;;8.55;7.20;;;;;;;14.18;80.00;101050.69;5094673;28;20024;-56
2023/07/21 04:20:25;;;;;;;10.50;6.75;;;;;;;14.23;79.56;101046.25;5076017;28;20134;-58
2023/07/21 04:22:51;;;;;;;12.13;6.30;;;;;;;14.31;79.36;101048.91;5094320;28;20020;-58
2023/07/21 04:25:18;;;;;;;6.95;5.70;;;;;;;14.47;78.39;101046.22;5094113;28;20525;-58
2023/07/21 04:27:50;;;;;;;8.05;6.57;;;;;;;14.52;78.05;101044.47;5094133;28;20076;-58
2023/07/21 04:30:19;;;;;;;8.38;6.80;;;;;;;14.62;77.93;101033.78;5093855;28;20044;-58
2023/07/21 04:32:45;;;;;;;9.13;6.55;;;;;;;14.64;77.88;101032.00;5094418;28;20024;-58
2023/07/21 04:35:10;;;;;;;7.78;5.90;;;;;;;14.61;77.36;101034.69;5093930;28;20027;-57
2023/07/21 04:37:36;;;;;;;7.88;6.43;;;;;;;14.63;77.24;101033.78;5076114;28;20024;-57
2023/07/21 04:40:04;;;;;;;10.30;6.55;;;;;;;14.64;77.65;101038.19;5094184;28;20024;-57
2023/07/21 04:42:29;;;;;;;10.20;6.28;;;;;;;14.70;77.61;101040.88;5093851;28;20028;-58
2023/07/21 04:44:55;;;;;;;10.63;6.38;;;;;;;14.77;77.34;101031.97;5093868;28;20394;-58
2023/07/21 04:47:22;;;;;;;14.18;6.40;;;;;;;14.73;77.74;101031.97;5093714;28;20052;-58
2023/07/21 04:49:48;;;;;;;7.72;6.20;;;;;;;14.61;78.61;101038.22;5094246;28;20354;-57
2023/07/21 04:52:14;;;;;;;7.97;6.45;;;;;;;14.42;79.78;101037.34;5093537;28;20059;-58
2023/07/21 04:54:39;;;;;;;7.72;6.28;;;;;;;14.25;80.91;101028.50;5093774;28;20043;-57
2023/07/21 04:57:05;;;;;;;7.85;6.82;;;;;;;14.21;81.71;101037.38;5093291;28;20154;-57
2023/07/21 04:59:31;;;;;;;8.80;6.93;;;;;;;14.22;82.08;101032.06;5075397;28;20060;-58
2023/07/21 05:01:56;;;;;;;8.30;7.10;;;;;;;14.28;82.36;101028.50;5093287;28;20052;-58
2023/07/21 05:04:22;;;;;;;12.05;7.25;;;;;;;14.34;82.51;101028.50;5075220;28;20166;-58
2023/07/21 05:06:48;;;;;;;9.18;7.63;;;;;;;14.48;82.83;101033.81;5093694;28;20025;-58
2023/07/21 05:09:14;;;;;;;10.60;7.30;;;;;;;14.65;82.56;101031.13;5093007;28;20061;-57
2023/07/21 05:11:42;;;;;;;10.98;6.90;;;;;;;14.90;81.71;101034.56;5093028;28;20034;-56
2023/07/21 05:14:08;;;;;;;10.63;9.10;;;;;;;15.12;80.82;101022.97;5093173;28;20446;-57
2023/07/21 05:16:36;;;;;;;12.25;8.75;;;;;;;15.35;80.78;101028.16;5093520;28;20104;-57
2023/07/21 05:19:02;;;;;;;13.45;8.93;;;;;;;15.51;80.55;101029.81;5093330;28;20193;-58
2023/07/21 05:21:27;;;;;;;16.67;9.50;;;;;;;15.60;80.39;101031.53;5093171;28;20065;-57
2023/07/21 05:23:53;;;;;;;11.73;9.13;;;;;;;15.75;80.47;101026.13;5093267;28;20020;-57
2023/07/21 05:26:19;;;;;;;14.60;8.80;;;;;;;15.92;79.84;101023.31;5093350;28;20028;-57
2023/07/21 05:28:46;;;;;;;13.20;10.23;;;;;;;15.95;80.06;101025.09;5074513;28;20044;-58
2023/07/21 05:31:12;;;;;;;15.18;10.90;;;;;;;15.98;79.43;101027.72;5092869;28;20040;-57
2023/07/21 05:33:37;;;;;;;16.80;11.35;;;;;;;16.00;79.87;101031.25;5092946;28;20024;-58
2023/07/21 05:36:09;;;;;;;16.10;11.93;;;;;;;16.06;80.60;101032.97;5092756;28;20027;-57
2023/07/21 05:38:35;;;;;;;12.80;11.23;;;;;;;16.15;79.54;101032.91;5093013;28;20032;-58
2023/07/21 05:41:01;;;;;;;13.52;10.90;;;;;;;16.19;79.56;101040.88;5092740;28;20028;-58
2023/07/21 05:43:26;;;;;;;12.68;10.93;;;;;;;16.42;79.53;101035.31;5092868;28;20501;-58
2023/07/21 05:45:52;;;;;;;14.32;10.52;;;;;;;16.55;78.06;101037.84;5093081;28;20036;-58
2023/07/21 05:48:17;;;;;;;15.18;10.50;;;;;;;16.67;77.66;101033.25;5092851;28;20042;-58
2023/07/21 05:50:42;;;;;;;12.85;10.80;;;;;;;16.75;77.56;101030.53;5092598;28;20025;-58
2023/07/21 05:53:08;;;;;;;14.85;10.45;;;;;;;16.87;77.51;101032.16;5092772;28;20031;-58
2023/07/21 05:55:33;;;;;;;13.10;10.32;;;;;;;16.89;77.10;101031.25;5092665;28;20508;-58
2023/07/21 05:57:59;;;;;;;15.88;10.75;;;;;;;16.90;76.83;101027.66;5092791;28;20062;-57
2023/07/21 06:00:25;;;;;;;13.02;10.57;;;;;;;16.93;77.32;101032.97;5092735;28;20032;-57
2023/07/21 06:02:51;;;;;;;16.10;11.52;;;;;;;16.96;77.19;101030.28;5092443;28;20043;-57
2023/07/21 06:05:16;;;;;;;15.43;12.23;;;;;;;17.02;77.79;101038.19;5092766;28;20040;-58
2023/07/21 06:07:43;;;;;;;17.67;12.27;;;;;;;17.10;77.74;101035.44;5092391;28;20032;-58
2023/07/21 06:10:09;;;;;;;14.98;11.73;;;;;;;17.08;77.91;101037.22;5092409;28;20051;-58
2023/07/21 06:12:35;;;;;;;17.50;11.13;;;;;;;17.11;78.20;101037.19;5092187;28;20101;-58
2023/07/21 06:15:00;;;;;;;19.95;11.70;;;;;;;17.23;77.51;101041.50;5092595;28;20047;-58
2023/07/21 06:17:26;;;;;;;14.77;12.10;;;;;;;17.39;77.58;101048.41;5092567;28;20024;-57
2023/07/21 06:19:52;;;;;;;19.90;12.05;;;;;;;17.50;77.25;101048.22;5092450;28;20074;-58
2023/07/21 06:22:17;;;;;;;16.23;12.18;;;;;;;17.66;77.11;101041.75;5096231;28;20035;-57
2023/07/21 06:24:44;;;;;;;14.30;11.60;;;;;;;17.88;75.84;101045.00;5096524;28;20479;-57
2023/07/21 06:27:12;;;;;;;12.52;11.23;;;;;;;17.99;75.15;101042.19;5096377;28;20115;-58
2023/07/21 06:29:37;;;;;;;14.25;11.25;;;;;;;18.10;73.82;101042.84;5096057;28;20043;-58
2023/07/21 06:32:03;;;;;;;15.13;12.27;;;;;;;18.15;73.98;101048.13;5096408;28;20114;-59
2023/07/21 06:34:29;;;;;;;15.95;11.85;;;;;;;18.23;73.78;101048.88;5096580;28;20025;-58
2023/07/21 06:36:54;;;;;;;15.02;11.32;;;;;;;18.25;73.20;101039.06;5096406;28;20478;-57
2023/07/21 06:39:22;;;;;;;13.90;11.68;;;;;;;18.32;73.98;101037.13;5096430;28;20362;-58
2023/07/21 06:41:48;;;;;;;13.48;11.75;;;;;;;18.42;73.66;101026.25;5096208;28;20038;-57
2023/07/21 06:44:14;;;;;;;16.25;11.60;;;;;;;18.45;71.42;101026.16;5096149;28;20056;-58
2023/07/21 06:46:44;;;;;;;18.10;11.45;;;;;;;18.49;71.03;101033.22;5096373;28;20043;-58
2023/07/21 06:49:10;;;;;;;12.82;11.45;;;;;;;18.51;71.18;101018.03;5096100;28;20073;-57
2023/07/21 06:51:35;;;;;;;14.25;11.65;;;;;;;18.54;72.22;101027.78;5096150;28;20040;-57
2023/07/21 06:54:03;;;;;;;15.30;12.13;;;;;;;18.62;72.37;101024.97;5095917;28;20112;-58
2023/07/21 06:56:29;;;;;;;13.82;12.05;;;;;;;18.70;71.95;101023.94;5095911;28;20420;-58
2023/07/21 06:58:55;;;;;;;14.23;12.55;;;;;;;18.77;71.54;101024.72;5095808;28;20024;-57
2023/07/21 07:01:21;;;;;;;18.80;13.27;;;;;;;18.77;72.18;101017.56;5095828;28;20120;-58
2023/07/21 07:03:46;;;;;;;15.07;12.73;;;;;;;18.86;70.90;101021.84;5095782;28;20541;-58
2023/07/21 07:06:11;;;;;;;15.05;12.48;;;;;;;18.95;71.46;101021.66;5095450;28;20051;-58
2023/07/21 07:08:37;;;;;;;16.75;13.07;;;;;;;19.12;71.21;101028.44;5095680;28;20136;-57
2023/07/21 07:11:02;;;;;;;17.80;13.73;;;;;;;19.13;70.65;101020.38;5095218;28;20028;-57
2023/07/21 07:13:28;;;;;;;15.73;13.18;;;;;;;19.17;70.99;101022.06;5095441;28;20134;-57
2023/07/21 07:15:54;;;;;;;17.05;12.85;;;;;;;19.19;69.46;101022.94;5095495;28;20394;-58
2023/07/21 07:18:20;;;;;;;15.90;12.48;;;;;;;19.27;69.48;101020.06;5095364;28;20028;-57
2023/07/21 07:20:50;;;;;;;14.93;12.40;;;;;;;19.40;69.44;101023.34;5095697;28;20131;-58
2023/07/21 07:23:16;;;;;;;16.67;11.18;;;;;;;19.53;67.57;101016.81;5095548;28;20085;-58
2023/07/21 07:25:48;;;;;;;16.90;12.55;;;;;;;19.66;67.42;101020.13;5095361;28;20063;-58
2023/07/21 07:28:15;;;;;;;14.73;9.88;;;;;;;19.88;65.63;101015.09;5095089;28;20071;-56
2023/07/21 07:30:41;;;;;;;14.13;12.43;;;;;;;20.10;65.29;101019.00;5094818;28;20508;-57
2023/07/21 07:33:06;;;;;;;16.63;12.50;;;;;;;20.40;64.07;101013.75;5059844;28;20036;-58
2023/07/21 07:35:32;;;;;;;15.40;12.32;;;;;;;20.78;63.41;101018.06;5094701;28;20401;-57
2023/07/21 07:37:58;;;;;;;14.77;11.85;;;;;;;21.00;63.03;101019.19;5095024;28;20053;-58
2023/07/21 07:40:24;;;;;;;15.73;11.40;;;;;;;21.33;61.48;101018.28;5095252;28;20036;-58
2023/07/21 07:42:50;;;;;;;14.80;10.73;;;;;;;21.49;58.88;101022.22;5093664;28;20032;-58
2023/07/21 07:45:15;;;;;;;16.98;13.02;;;;;;;21.58;59.13;101024.59;5093885;28;20416;-57
2023/07/21 07:47:43;;;;;;;14.50;10.32;;;;;;;21.54;58.66;101028.34;5093791;28;20467;-58
2023/07/21 07:50:10;;;;;;;12.30;9.38;;;;;;;21.54;58.88;101033.72;5075830;28;20077;-58
2023/07/21 07:52:36;;;;;;;11.80;9.73;;;;;;;21.50;58.51;101024.00;5093681;28;20028;-57
2023/07/21 07:55:02;;;;;;;16.50;10.38;;;;;;;21.52;57.89;101026.63;5093895;28;20177;-57
2023/07/21 07:57:28;;;;;;;17.40;10.82;;;;;;;21.56;58.42;101033.66;5094555;28;20020;-58
2023/07/21 07:59:54;;;;;;;15.35;10.73;;;;;;;21.63;58.78;101032.56;5094906;28;20028;-58
2023/07/21 08:02:19;;;;;;;14.45;10.15;;;;;;;21.68;58.15;101031.47;5095011;28;20416;-58
2023/07/21 08:04:45;;;;;;;14.40;9.30;;;;;;;21.74;56.84;101036.63;5094782;28;20057;-56
2023/07/21 08:07:10;;;;;;;11.32;9.43;;;;;;;21.82;56.50;101032.84;5094569;28;20032;-57
2023/07/21 08:09:36;;;;;;;16.13;9.45;;;;;;;21.71;56.26;101027.78;5094843;28;20114;-58
2023/07/21 08:12:01;;;;;;;13.50;9.52;;;;;;;21.86;55.63;101024.59;5094441;28;20030;-57
2023/07/21 08:14:27;;;;;;;13.40;8.60;;;;;;;21.88;56.12;101025.41;5094531;28;20477;-58
2023/07/21 08:16:52;;;;;;;11.27;8.40;;;;;;;21.77;55.72;101021.34;5094383;28;20374;-57
2023/07/21 08:19:19;;;;;;;10.68;8.35;;;;;;;21.80;55.37;101022.13;5094478;28;20028;-57
2023/07/21 08:21:47;;;;;;;15.45;9.20;;;;;;;21.80;55.02;101029.28;5094165;28;20463;-57
2023/07/21 08:24:14;;;;;;;15.73;8.60;;;;;;;21.90;55.00;101006.56;5094559;28;20032;-57
2023/07/21 08:26:40;;;;;;;12.35;9.02;;;;;;;22.04;55.30;101024.91;5094183;28;20503;-57
2023/07/21 08:29:07;;;;;;;10.57;8.50;;;;;;;22.11;55.19;101018.41;5093842;28;20060;-59
2023/07/21 08:31:32;;;;;;;12.90;9.07;;;;;;;22.40;54.16;101020.13;5094003;28;20025;-58
2023/07/21 08:33:58;;;;;;;13.80;8.55;;;;;;;22.51;54.56;101012.53;5094285;28;20024;-58
2023/07/21 08:36:23;;;;;;;12.57;8.38;;;;;;;22.73;54.12;101021.56;5094262;28;20074;-58
2023/07/21 08:38:50;;;;;;;11.70;8.00;;;;;;;22.81;53.00;101021.28;5094245;28;20461;-59
2023/07/21 08:41:18;;;;;;;10.38;7.22;;;;;;;22.95;51.81;101016.31;5093703;28;20032;-58
2023/07/21 08:43:46;;;;;;;11.02;9.52;;;;;;;22.99;52.63;101019.75;5092964;28;20377;-57
2023/07/21 08:46:11;;;;;;;14.27;7.18;;;;;;;23.08;51.95;101022.09;5094220;28;20020;-58
2023/07/21 08:48:39;;;;;;;9.05;6.50;;;;;;;23.04;50.62;101022.28;5093950;28;20492;-58
2023/07/21 08:51:05;;;;;;;16.00;7.20;;;;;;;23.10;50.56;101016.66;5093629;28;20024;-57
2023/07/21 08:53:30;;;;;;;10.05;7.10;;;;;;;23.37;50.28;101022.78;5093889;28;20470;-58
2023/07/21 08:55:57;;;;;;;9.70;7.22;;;;;;;23.59;49.64;101015.59;5093598;28;20020;-58
2023/07/21 08:58:24;;;;;;;11.32;7.00;;;;;;;23.74;49.27;101016.81;5093815;28;20476;-59
2023/07/21 09:00:51;;;;;;;9.88;6.85;;;;;;;23.77;49.46;101019.41;5093712;28;20036;-58
2023/07/21 09:03:27;;;;;;;8.82;7.10;;;;;;;23.69;50.41;101011.63;5093636;28;20036;-59
2023/07/21 09:05:56;;;;;;;9.32;6.50;;;;;;;23.56;49.30;101025.66;5093496;28;20106;-57
2023/07/21 09:08:27;;;;;;;9.35;6.15;;;;;;;23.34;50.33;101022.91;5093395;28;20032;-58
2023/07/21 09:11:00;;;;;;;9.35;6.22;;;;;;;23.35;51.02;101025.56;5093255;28;20031;-58
2023/07/21 09:13:26;;;;;;;8.13;6.32;;;;;;;23.36;50.90;101018.34;5093095;28;20036;-58
2023/07/21 09:15:56;;;;;;;10.55;6.20;;;;;;;23.40;50.02;101018.16;5093148;28;20035;-57
2023/07/21 09:18:29;;;;;;;8.27;6.05;;;;;;;23.67;49.71;101018.00;5093124;28;20046;-58
2023/07/21 09:20:55;;;;;;;9.63;6.65;;;;;;;23.87;48.91;101022.59;5093158;28;20127;-58
2023/07/21 09:23:22;;;;;;;8.30;6.40;;;;;;;24.03;48.37;101015.63;5093329;28;20025;-57
2023/07/21 09:25:51;;;;;;;11.10;6.85;;;;;;;24.52;47.43;101013.50;5093124;28;20047;-58
2023/07/21 09:28:17;;;;;;;9.07;6.60;;;;;;;24.87;47.85;101019.13;5093043;28;20040;-59
2023/07/21 09:30:52;;;;;;;9.38;8.00;;;;;;;25.11;46.55;101014.47;5093252;28;20496;-57
2023/07/21 09:33:23;;;;;;;11.85;7.95;;;;;;;25.46;44.84;101010.06;5093069;28;20040;-58
2023/07/21 09:35:49;;;;;;;10.60;7.70;;;;;;;25.71;44.46;101004.31;5093104;28;20138;-59
2023/07/21 09:38:15;;;;;;;17.33;8.02;;;;;;;25.90;44.70;101010.59;5093166;28;20100;-58
2023/07/21 09:40:44;;;;;;;11.43;7.88;;;;;;;26.19;43.90;101006.41;5092821;28;20062;-58
2023/07/21 09:43:10;;;;;;;12.43;9.30;;;;;;;26.12;42.87;100991.44;5092554;28;20077;-58
2023/07/21 09:45:39;;;;;;;16.13;10.85;;;;;;;26.33;42.51;100985.84;5093078;28;20036;-58
2023/07/21 09:48:04;;;;;;;14.43;10.13;;;;;;;26.64;40.88;100990.56;5074603;28;20531;-58
2023/07/21 09:50:30;;;;;;;16.95;10.85;;;;;;;26.66;41.43;100977.78;5092908;28;20050;-57
2023/07/21 09:52:56;;;;;;;12.88;10.80;;;;;;;26.60;42.26;100981.69;5092806;28;20119;-59
2023/07/21 09:55:22;;;;;;;13.23;11.18;;;;;;;26.50;40.80;100982.25;5092884;28;20024;-58
2023/07/21 09:57:49;;;;;;;14.25;9.75;;;;;;;26.76;41.53;100980.84;5092689;28;20024;-58
2023/07/21 10:00:17;;;;;;;14.73;10.07;;;;;;;27.02;40.82;100982.13;5092999;28;20439;-58
2023/07/21 10:02:50;;;;;;;12.10;9.65;;;;;;;27.29;40.36;100979.75;5092929;28;20067;-58
2023/07/21 10:05:16;;;;;;;14.10;9.90;;;;;;;27.54;38.70;100977.38;5092643;28;20028;-58
2023/07/21 10:07:43;;;;;;;12.50;10.27;;;;;;;27.60;38.73;100981.56;5092684;28;20469;-58
2023/07/21 10:10:10;;;;;;;17.70;11.60;;;;;;;26.95;39.73;100974.34;5092663;28;20119;-58
2023/07/21 10:12:52;;;;;;;13.98;11.00;;;;;;;26.50;41.87;100979.56;5092289;28;20035;-58
2023/07/21 10:15:29;;;;;;;14.02;9.98;;;;;;;26.04;41.88;100981.94;5092813;28;20156;-58
2023/07/21 10:17:58;;;;;;;9.95;8.75;;;;;;;25.53;41.41;100984.47;5092644;28;20020;-59
2023/07/21 10:20:39;;;;;;;9.95;8.70;;;;;;;25.30;42.22;100990.09;5092641;28;20106;-58
2023/07/21 10:23:06;;;;;;;12.93;10.60;;;;;;;25.03;43.47;100987.75;5092630;28;20024;-58
2023/07/21 10:25:48;;;;;;;12.43;10.10;;;;;;;24.71;44.40;100990.13;5092738;28;20177;-58
2023/07/21 10:28:14;;;;;;;12.30;10.25;;;;;;;24.56;45.39;100981.81;5092148;28;20111;-58
2023/07/21 10:30:39;;;;;;;15.02;9.80;;;;;;;24.33;50.21;100985.53;5092317;28;20036;-59
2023/07/21 10:33:20;;;;;;;16.20;10.50;;;;;;;24.05;49.42;100984.00;5092291;28;20024;-59
2023/07/21 10:35:49;;;;;;;13.60;10.27;;;;;;;23.82;51.06;100981.44;5092733;28;20397;-58
2023/07/21 10:38:14;;;;;;;15.23;12.07;;;;;;;23.58;51.04;100994.06;5092202;28;20028;-57
2023/07/21 10:40:46;;;;;;;15.68;12.07;;;;;;;23.36;51.55;100992.25;5092555;28;20119;-57
2023/07/21 10:43:12;;;;;;;17.20;13.45;;;;;;;22.93;51.94;100999.31;5091899;28;20023;-58
2023/07/21 10:45:38;;;;;;;16.33;12.75;;;;;;;22.79;52.16;100992.66;5092151;28;20024;-59
2023/07/21 10:48:11;;;;;;;15.48;13.60;;;;;;;22.59;53.14;101001.47;5074000;28;20078;-58
2023/07/21 10:50:54;;;;;;;20.83;14.73;;;;;;;22.47;52.89;100997.41;5092175;28;20028;-58
2023/07/21 10:53:21;;;;;;;18.83;13.48;;;;;;;22.29;53.43;100995.38;5092132;28;20160;-58
2023/07/21 10:55:46;;;;;;;16.45;13.35;;;;;;;22.17;53.49;100997.56;5092352;28;20081;-59
2023/07/21 10:58:13;;;;;;;21.25;14.70;;;;;;;22.00;54.89;100999.91;5092046;28;20420;-57
2023/07/21 11:00:49;;;;;;;20.17;14.15;;;;;;;21.82;55.42;101001.44;5092018;28;20031;-58
2023/07/21 11:03:15;;;;;;;18.35;14.50;;;;;;;21.63;56.13;100997.59;5092409;28;20033;-58
2023/07/21 11:05:41;;;;;;;11.77;9.38;;;;;;;21.47;53.20;100998.06;5092233;28;20415;-57
2023/07/21 11:08:11;;;;;;;11.07;8.38;;;;;;;21.29;53.93;101004.00;5095073;28;20032;-57
2023/07/21 11:10:36;;;;;;;9.13;7.13;;;;;;;21.05;54.86;101005.63;5095849;28;20039;-59
2023/07/21 11:13:02;;;;;;;10.85;7.00;;;;;;;20.78;56.48;101019.88;5095793;28;20389;-58
2023/07/21 11:15:28;;;;;;;12.00;8.18;;;;;;;20.56;58.17;101031.22;5095828;28;20461;-58